createdAt,value
2022-09-28T00:00:14.102Z,88
2022-09-28T00:01:20.272Z,88
2022-09-28T00:02:27.397Z,88
2022-09-28T00:03:34.304Z,88
2022-09-28T00:05:48.586Z,88
2022-09-28T00:06:55.166Z,88
2022-09-28T00:08:02.382Z,88
2022-09-28T00:09:09.416Z,88
2022-09-28T00:10:16.517Z,88
2022-09-28T00:11:23.534Z,88
2022-09-28T00:12:30.168Z,88
2022-09-28T00:13:37.402Z,88
2022-09-28T00:14:44.357Z,88
2022-09-28T00:15:51.484Z,88
2022-09-28T00:16:58.008Z,88
2022-09-28T00:18:05.168Z,88
2022-09-28T00:19:12.361Z,88
2022-09-28T00:20:19.396Z,88
2022-09-28T00:22:33.051Z,88
2022-09-28T00:23:40.192Z,88
2022-09-28T00:24:47.325Z,88
2022-09-28T00:25:54.353Z,88
2022-09-28T00:27:01.489Z,88
2022-09-28T00:28:08.060Z,88
2022-09-28T00:29:15.301Z,88
2022-09-28T00:30:22.320Z,88
2022-09-28T00:31:29.496Z,88
2022-09-28T00:33:43.539Z,89
2022-09-28T00:34:50.213Z,88
2022-09-28T00:35:58.364Z,88
2022-09-28T00:37:04.353Z,88
2022-09-28T00:38:11.555Z,88
2022-09-28T00:39:18.206Z,88
2022-09-28T00:40:25.255Z,89
2022-09-28T00:41:32.813Z,89
2022-09-28T00:42:39.440Z,89
2022-09-28T00:43:46.529Z,89
2022-09-28T00:44:53.153Z,89
2022-09-28T00:46:00.450Z,89
2022-09-28T00:47:07.330Z,89
2022-09-28T00:48:14.361Z,89
2022-09-28T00:49:21.546Z,89
2022-09-28T00:50:28.126Z,89
2022-09-28T00:51:35.151Z,89
2022-09-28T00:52:42.256Z,89
2022-09-28T00:53:49.436Z,89
2022-09-28T00:54:56.498Z,89
2022-09-28T00:56:03.623Z,89
2022-09-28T00:57:10.192Z,89
2022-09-28T00:58:17.329Z,89
2022-09-28T00:59:24.447Z,89
2022-09-28T01:00:31.660Z,89
2022-09-28T01:01:38.284Z,89
2022-09-28T01:02:45.172Z,89
2022-09-28T01:03:52.328Z,89
2022-09-28T01:04:59.540Z,88
2022-09-28T01:06:06.554Z,89
2022-09-28T01:07:13.073Z,89
2022-09-28T01:08:20.283Z,89
2022-09-28T01:09:27.354Z,89
2022-09-28T01:10:34.380Z,89
2022-09-28T01:11:41.726Z,89
2022-09-28T01:12:48.160Z,89
2022-09-28T01:13:55.223Z,88
2022-09-28T01:15:02.335Z,89
2022-09-28T01:16:09.572Z,89
2022-09-28T01:17:16.572Z,88
2022-09-28T01:18:23.652Z,88
2022-09-28T01:19:30.225Z,88
2022-09-28T01:20:37.370Z,88
2022-09-28T01:21:45.553Z,88
2022-09-28T01:22:52.122Z,88
2022-09-28T01:23:58.163Z,88
2022-09-28T01:26:12.360Z,88
2022-09-28T01:28:26.662Z,89
2022-09-28T01:29:34.071Z,88
2022-09-28T01:30:40.324Z,89
2022-09-28T01:31:47.503Z,89
2022-09-28T01:32:54.434Z,89
2022-09-28T01:34:01.557Z,89
2022-09-28T01:35:08.209Z,89
2022-09-28T01:36:15.249Z,88
2022-09-28T01:37:22.363Z,88
2022-09-28T01:38:29.491Z,88
2022-09-28T01:39:36.553Z,88
2022-09-28T01:40:43.175Z,88
2022-09-28T01:41:50.247Z,88
2022-09-28T01:42:57.478Z,88
2022-09-28T01:44:04.459Z,88
2022-09-28T01:45:11.595Z,88
2022-09-28T01:46:18.273Z,88
2022-09-28T01:47:25.222Z,88
2022-09-28T01:48:32.512Z,88
2022-09-28T01:49:39.519Z,88
2022-09-28T01:50:46.610Z,88
2022-09-28T01:51:53.118Z,88
2022-09-28T01:53:00.263Z,88
2022-09-28T01:54:07.760Z,88
2022-09-28T01:55:14.447Z,88
2022-09-28T01:56:21.071Z,88
2022-09-28T01:57:28.188Z,88
2022-09-28T01:58:35.272Z,88
2022-09-28T01:59:43.499Z,88
2022-09-28T02:00:49.561Z,88
2022-09-28T02:01:56.195Z,88
2022-09-28T02:04:10.842Z,88
2022-09-28T02:05:17.485Z,88
2022-09-28T02:06:24.491Z,88
2022-09-28T02:07:31.122Z,88
2022-09-28T02:08:38.194Z,88
2022-09-28T02:09:45.263Z,88
2022-09-28T02:10:52.491Z,88
2022-09-28T02:11:59.520Z,88
2022-09-28T02:13:06.154Z,88
2022-09-28T02:14:13.223Z,88
2022-09-28T02:15:20.443Z,88
2022-09-28T02:16:27.494Z,88
2022-09-28T02:17:34.565Z,88
2022-09-28T02:18:41.133Z,88
2022-09-28T02:19:48.267Z,88
2022-09-28T02:20:55.277Z,88
2022-09-28T02:22:02.390Z,88
2022-09-28T02:23:09.563Z,88
2022-09-28T02:24:20.628Z,88
2022-09-28T02:25:23.165Z,88
2022-09-28T02:26:30.406Z,88
2022-09-28T02:27:37.482Z,89
2022-09-28T02:29:51.628Z,89
2022-09-28T02:32:05.312Z,89
2022-09-28T02:33:12.467Z,89
2022-09-28T02:34:19.526Z,89
2022-09-28T02:35:26.122Z,89
2022-09-28T02:36:33.220Z,89
2022-09-28T02:37:40.339Z,89
2022-09-28T02:38:47.481Z,89
2022-09-28T02:39:54.550Z,89
2022-09-28T02:41:01.268Z,89
2022-09-28T02:42:08.263Z,89
2022-09-28T02:43:15.307Z,89
2022-09-28T02:44:22.471Z,89
2022-09-28T02:45:30.117Z,89
2022-09-28T02:46:36.263Z,89
2022-09-28T02:47:44.282Z,89
2022-09-28T02:49:04.912Z,89
2022-09-28T02:49:57.529Z,89
2022-09-28T02:51:04.516Z,89
2022-09-28T02:52:12.142Z,89
2022-09-28T02:53:18.290Z,89
2022-09-28T02:54:25.347Z,89
2022-09-28T02:56:39.682Z,89
2022-09-28T02:57:46.550Z,89
2022-09-28T02:58:53.400Z,89
2022-09-28T03:00:00.392Z,90
2022-09-28T03:01:07.544Z,90
2022-09-28T03:02:14.665Z,90
2022-09-28T03:03:21.261Z,90
2022-09-28T03:04:28.314Z,90
2022-09-28T03:05:35.380Z,90
2022-09-28T03:06:42.498Z,90
2022-09-28T03:07:49.584Z,90
2022-09-28T03:08:56.249Z,90
2022-09-28T03:10:03.238Z,90
2022-09-28T03:11:10.394Z,90
2022-09-28T03:12:17.502Z,90
2022-09-28T03:13:25.233Z,90
2022-09-28T03:14:31.221Z,90
2022-09-28T03:15:38.342Z,90
2022-09-28T03:16:45.452Z,90
2022-09-28T03:17:52.472Z,90
2022-09-28T03:18:59.684Z,90
2022-09-28T03:20:06.214Z,91
2022-09-28T03:21:13.283Z,91
2022-09-28T03:22:20.425Z,90
2022-09-28T03:23:27.504Z,91
2022-09-28T03:24:34.077Z,91
2022-09-28T03:25:41.212Z,91
2022-09-28T03:27:55.410Z,91
2022-09-28T03:29:02.463Z,91
2022-09-28T03:30:09.639Z,91
2022-09-28T03:31:16.341Z,91
2022-09-28T03:33:29.872Z,91
2022-09-28T03:34:37.537Z,91
2022-09-28T03:35:44.164Z,92
2022-09-28T03:36:51.190Z,92
2022-09-28T03:37:58.302Z,92
2022-09-28T03:39:05.423Z,92
2022-09-28T03:40:12.521Z,92
2022-09-28T03:41:19.623Z,92
2022-09-28T03:42:26.204Z,92
2022-09-28T03:43:33.272Z,92
2022-09-28T03:44:40.441Z,92
2022-09-28T03:45:47.655Z,92
2022-09-28T03:46:54.214Z,92
2022-09-28T03:48:01.304Z,92
2022-09-28T03:49:08.335Z,92
2022-09-28T03:50:15.488Z,92
2022-09-28T03:51:23.092Z,92
2022-09-28T03:52:29.153Z,92
2022-09-28T03:53:36.265Z,93
2022-09-28T03:54:48.305Z,92
2022-09-28T03:55:50.472Z,93
2022-09-28T03:56:57.551Z,93
2022-09-28T03:58:04.100Z,93
2022-09-28T03:59:11.308Z,93
2022-09-28T04:00:18.381Z,93
2022-09-28T04:02:32.646Z,93
2022-09-28T04:03:39.147Z,93
2022-09-28T04:04:46.281Z,93
2022-09-28T04:05:53.305Z,94
2022-09-28T04:07:00.468Z,93
2022-09-28T04:09:14.355Z,94
2022-09-28T04:10:21.275Z,94
2022-09-28T04:11:34.924Z,94
2022-09-28T04:12:35.452Z,94
2022-09-28T04:13:42.520Z,94
2022-09-28T04:14:49.162Z,94
2022-09-28T04:15:56.309Z,95
2022-09-28T04:17:03.349Z,95
2022-09-28T04:18:10.448Z,95
2022-09-28T04:19:17.652Z,95
2022-09-28T04:20:24.206Z,95
2022-09-28T04:21:31.295Z,95
2022-09-28T04:22:38.398Z,95
2022-09-28T04:24:52.535Z,95
2022-09-28T04:25:59.154Z,96
2022-09-28T04:27:06.322Z,96
2022-09-28T04:28:13.394Z,96
2022-09-28T04:30:27.637Z,96
2022-09-28T04:31:34.264Z,97
2022-09-28T04:32:41.311Z,97
2022-09-28T04:33:48.503Z,97
2022-09-28T04:34:55.461Z,97
2022-09-28T04:37:09.171Z,97
2022-09-28T04:38:23.507Z,97
2022-09-28T04:39:23.390Z,97
2022-09-28T04:40:30.569Z,97
2022-09-28T04:41:37.095Z,98
2022-09-28T04:42:44.172Z,98
2022-09-28T04:43:51.353Z,98
2022-09-28T04:44:58.415Z,98
2022-09-28T04:46:05.558Z,98
2022-09-28T04:47:12.116Z,98
2022-09-28T04:48:19.194Z,98
2022-09-28T04:50:33.372Z,98
2022-09-28T04:51:40.581Z,98
2022-09-28T04:52:47.642Z,98
2022-09-28T04:53:54.160Z,98
2022-09-28T04:55:01.851Z,98
2022-09-28T04:56:08.485Z,98
2022-09-28T04:58:25.671Z,98
2022-09-28T04:59:32.607Z,98
2022-09-28T05:00:36.883Z,98
2022-09-28T05:01:45.815Z,98
2022-09-28T05:02:50.491Z,98
2022-09-28T05:03:57.884Z,98
2022-09-28T05:05:04.172Z,98
2022-09-28T05:06:11.327Z,98
2022-09-28T05:07:18.463Z,98
2022-09-28T05:08:25.616Z,98
2022-09-28T05:09:34.992Z,98
2022-09-28T05:10:39.218Z,98
2022-09-28T05:11:46.331Z,98
2022-09-28T05:12:53.431Z,98
2022-09-28T05:14:00.504Z,98
2022-09-28T05:15:07.554Z,98
2022-09-28T05:16:14.340Z,98
2022-09-28T05:17:21.352Z,98
2022-09-28T05:18:28.430Z,98
2022-09-28T05:19:35.594Z,98
2022-09-28T05:20:42.124Z,98
2022-09-28T05:21:49.268Z,98
2022-09-28T05:22:56.339Z,98
2022-09-28T05:24:03.479Z,98
2022-09-28T05:25:10.622Z,98
2022-09-28T05:26:17.210Z,98
2022-09-28T05:27:24.246Z,98
2022-09-28T05:28:31.378Z,98
2022-09-28T05:29:38.537Z,98
2022-09-28T05:31:52.210Z,98
2022-09-28T05:32:59.391Z,98
2022-09-28T05:34:06.342Z,98
2022-09-28T05:35:13.485Z,98
2022-09-28T05:36:20.632Z,98
2022-09-28T05:37:27.187Z,98
2022-09-28T05:38:34.301Z,98
2022-09-28T05:40:48.570Z,98
2022-09-28T05:41:55.600Z,98
2022-09-28T05:43:02.194Z,98
2022-09-28T05:44:09.312Z,98
2022-09-28T05:45:16.412Z,98
2022-09-28T05:46:23.592Z,98
2022-09-28T05:47:30.071Z,98
2022-09-28T05:48:37.214Z,98
2022-09-28T05:49:44.306Z,98
2022-09-28T05:50:51.411Z,98
2022-09-28T05:53:05.087Z,98
2022-09-28T05:54:12.212Z,98
2022-09-28T05:55:19.343Z,98
2022-09-28T05:56:26.479Z,98
2022-09-28T05:57:33.490Z,98
2022-09-28T05:58:41.162Z,98
2022-09-28T06:00:54.389Z,98
2022-09-28T06:02:01.488Z,98
2022-09-28T06:03:09.469Z,98
2022-09-28T06:04:15.657Z,98
2022-09-28T06:05:22.395Z,98
2022-09-28T06:06:29.319Z,98
2022-09-28T06:07:36.452Z,98
2022-09-28T06:08:43.462Z,98
2022-09-28T06:09:50.129Z,98
2022-09-28T06:10:57.153Z,98
2022-09-28T06:13:11.484Z,98
2022-09-28T06:14:18.675Z,98
2022-09-28T06:15:25.100Z,98
2022-09-28T06:16:32.245Z,98
2022-09-28T06:17:39.342Z,98
2022-09-28T06:18:46.489Z,98
2022-09-28T06:19:53.479Z,98
2022-09-28T06:21:00.215Z,98
2022-09-28T06:22:07.173Z,98
2022-09-28T06:23:14.311Z,98
2022-09-28T06:24:21.588Z,98
2022-09-28T06:25:28.534Z,98
2022-09-28T06:26:35.124Z,98
2022-09-28T06:28:50.278Z,98
2022-09-28T06:29:56.571Z,98
2022-09-28T06:31:03.612Z,98
2022-09-28T06:32:10.150Z,98
2022-09-28T06:33:17.344Z,98
2022-09-28T06:34:24.287Z,98
2022-09-28T06:35:31.692Z,98
2022-09-28T06:36:38.573Z,98
2022-09-28T06:37:45.131Z,98
2022-09-28T06:38:52.220Z,98
2022-09-28T06:39:59.335Z,98
2022-09-28T06:41:06.437Z,98
2022-09-28T06:42:13.575Z,98
2022-09-28T06:44:27.352Z,98
2022-09-28T06:45:34.341Z,98
2022-09-28T06:46:41.518Z,98
2022-09-28T06:47:48.617Z,98
2022-09-28T06:48:55.155Z,98
2022-09-28T06:50:02.320Z,99
2022-09-28T06:51:09.420Z,98
2022-09-28T06:52:16.459Z,99
2022-09-28T06:54:30.151Z,99
2022-09-28T06:55:37.302Z,99
2022-09-28T06:56:44.340Z,98
2022-09-28T06:57:51.506Z,99
2022-09-28T06:58:58.060Z,99
2022-09-28T07:00:05.125Z,99
2022-09-28T07:01:12.367Z,98
2022-09-28T07:02:19.459Z,98
2022-09-28T07:03:26.467Z,99
2022-09-28T07:04:33.027Z,99
2022-09-28T07:05:40.152Z,99
2022-09-28T07:06:47.370Z,99
2022-09-28T07:07:54.347Z,99
2022-09-28T07:09:18.782Z,99
2022-09-28T07:10:08.201Z,99
2022-09-28T07:11:15.178Z,99
2022-09-28T07:12:22.320Z,99
2022-09-28T07:13:49.178Z,99
2022-09-28T07:14:46.602Z,99
2022-09-28T07:15:43.592Z,99
2022-09-28T07:17:11.813Z,99
2022-09-28T07:18:01.291Z,99
2022-09-28T07:19:04.390Z,99
2022-09-28T07:21:27.495Z,99
2022-09-28T07:22:40.290Z,99
2022-09-28T07:23:34.204Z,99
2022-09-28T07:24:39.446Z,99
2022-09-28T07:25:46.499Z,99
2022-09-28T07:26:53.067Z,99
2022-09-28T07:28:00.168Z,99
2022-09-28T07:29:07.352Z,99
2022-09-28T07:30:14.401Z,99
2022-09-28T07:31:21.673Z,99
2022-09-28T07:32:28.232Z,99
2022-09-28T07:33:35.201Z,99
2022-09-28T07:35:49.454Z,99
2022-09-28T07:36:57.428Z,99
2022-09-28T07:38:03.111Z,99
2022-09-28T07:39:10.245Z,99
2022-09-28T07:40:17.343Z,99
2022-09-28T07:41:24.376Z,99
2022-09-28T07:42:31.684Z,99
2022-09-28T07:43:38.161Z,99
2022-09-28T07:44:45.217Z,99
2022-09-28T07:45:52.496Z,99
2022-09-28T07:48:06.633Z,99
2022-09-28T07:49:13.235Z,99
2022-09-28T07:50:20.229Z,99
2022-09-28T07:51:27.317Z,99
2022-09-28T07:52:34.455Z,99
2022-09-28T07:53:41.713Z,99
2022-09-28T07:54:48.116Z,99
2022-09-28T07:55:55.243Z,99
2022-09-28T07:57:02.868Z,98
2022-09-28T07:58:08.943Z,99
2022-09-28T07:59:16.383Z,99
2022-09-28T08:00:23.671Z,99
2022-09-28T08:01:39.976Z,99
2022-09-28T08:02:37.418Z,99
2022-09-28T08:03:44.503Z,99
2022-09-28T08:04:52.272Z,99
2022-09-28T08:17:08.200Z,101
2022-09-28T08:18:15.285Z,101
2022-09-28T08:19:22.346Z,101
2022-09-28T08:20:29.556Z,101
2022-09-28T08:21:36.083Z,101
2022-09-28T08:22:43.170Z,101
2022-09-28T08:23:50.309Z,101
2022-09-28T08:24:57.434Z,101
2022-09-28T08:27:11.571Z,101
2022-09-28T08:28:18.217Z,101
2022-09-28T08:29:25.287Z,101
2022-09-28T08:30:32.491Z,101
2022-09-28T08:31:39.545Z,101
2022-09-28T08:32:46.070Z,101
2022-09-28T08:33:53.182Z,101
2022-09-28T08:35:00.301Z,101
2022-09-28T08:36:07.445Z,101
2022-09-28T08:37:14.454Z,101
2022-09-28T08:38:21.076Z,101
2022-09-28T08:39:28.228Z,101
2022-09-28T08:40:35.351Z,101
2022-09-28T08:41:42.501Z,101
2022-09-28T08:42:49.534Z,101
2022-09-28T08:43:56.110Z,101
2022-09-28T08:45:03.246Z,101
2022-09-28T08:46:10.446Z,101
2022-09-28T08:47:17.412Z,101
2022-09-28T08:49:31.214Z,101
2022-09-28T08:51:45.311Z,101
2022-09-28T08:52:52.368Z,101
2022-09-28T08:53:59.016Z,101
2022-09-28T08:55:06.265Z,101
2022-09-28T08:56:13.186Z,101
2022-09-28T08:58:27.484Z,101
2022-09-28T08:59:34.478Z,101
2022-09-28T09:00:41.220Z,101
2022-09-28T09:01:48.304Z,101
2022-09-28T09:02:55.385Z,101
2022-09-28T09:04:04.338Z,101
2022-09-28T09:05:09.565Z,101
2022-09-28T09:06:18.441Z,101
2022-09-28T09:07:23.177Z,100
2022-09-28T09:08:30.322Z,100
2022-09-28T09:09:37.936Z,100
2022-09-28T09:10:44.571Z,100
2022-09-28T09:11:51.148Z,100
2022-09-28T09:12:58.360Z,101
2022-09-28T09:14:05.342Z,100
2022-09-28T09:15:12.442Z,100
2022-09-28T09:16:19.583Z,100
2022-09-28T09:17:26.169Z,100
2022-09-28T09:18:33.256Z,100
2022-09-28T09:19:40.396Z,100
2022-09-28T09:20:47.483Z,100
2022-09-28T09:21:54.037Z,100
2022-09-28T09:23:01.186Z,100
2022-09-28T09:24:08.229Z,100
2022-09-28T09:25:16.223Z,100
2022-09-28T09:26:25.916Z,100
2022-09-28T09:27:29.028Z,100
2022-09-28T09:28:36.176Z,100
2022-09-28T09:29:43.220Z,100
2022-09-28T09:30:50.528Z,100
2022-09-28T09:31:57.493Z,100
2022-09-28T09:33:04.012Z,100
2022-09-28T09:34:11.352Z,100
2022-09-28T09:35:19.263Z,100
2022-09-28T09:36:25.369Z,100
2022-09-28T09:37:32.478Z,100
2022-09-28T09:39:46.359Z,100
2022-09-28T09:40:53.336Z,100
2022-09-28T09:42:00.431Z,100
2022-09-28T09:43:07.541Z,100
2022-09-28T09:44:14.214Z,100
2022-09-28T09:45:21.241Z,100
2022-09-28T09:46:28.312Z,100
2022-09-28T09:47:35.427Z,100
2022-09-28T09:48:42.483Z,100
2022-09-28T09:50:56.245Z,100
2022-09-28T09:52:03.311Z,100
2022-09-28T09:53:10.398Z,99
2022-09-28T09:55:29.622Z,99
2022-09-28T09:56:31.223Z,99
2022-09-28T09:57:38.324Z,99
2022-09-28T09:58:45.449Z,99
2022-09-28T09:59:52.549Z,99
2022-09-28T10:00:59.145Z,99
2022-09-28T10:02:09.867Z,99
2022-09-28T10:03:13.309Z,99
2022-09-28T10:04:20.371Z,99
2022-09-28T10:05:27.553Z,99
2022-09-28T10:06:34.214Z,99
2022-09-28T10:07:43.390Z,99
2022-09-28T10:08:48.289Z,99
2022-09-28T10:09:55.415Z,99
2022-09-28T10:11:02.521Z,99
2022-09-28T10:12:09.116Z,99
2022-09-28T10:13:16.756Z,99
2022-09-28T10:14:23.329Z,99
2022-09-28T10:15:30.586Z,99
2022-09-28T10:17:44.066Z,99
2022-09-28T10:18:51.275Z,99
2022-09-28T10:21:05.432Z,99
2022-09-28T10:22:12.063Z,97
2022-09-28T10:23:19.107Z,95
2022-09-28T10:24:26.266Z,94
2022-09-28T10:25:33.362Z,94
2022-09-28T10:26:40.489Z,93
2022-09-28T10:27:47.010Z,93
2022-09-28T10:28:54.099Z,93
2022-09-28T10:30:01.226Z,93
2022-09-28T10:32:15.413Z,93
2022-09-28T10:33:22.062Z,93
2022-09-28T10:34:29.176Z,93
2022-09-28T10:35:36.203Z,93
2022-09-28T10:36:43.317Z,93
2022-09-28T10:37:50.445Z,93
2022-09-28T10:38:57.052Z,93
2022-09-28T10:40:04.188Z,93
2022-09-28T10:41:11.243Z,94
2022-09-28T10:42:18.392Z,94
2022-09-28T10:43:25.455Z,94
2022-09-28T10:44:32.075Z,94
2022-09-28T10:45:39.248Z,94
2022-09-28T10:46:46.282Z,94
2022-09-28T10:47:53.351Z,94
2022-09-28T10:49:00.499Z,94
2022-09-28T10:50:07.557Z,94
2022-09-28T10:51:14.154Z,94
2022-09-28T10:52:20.761Z,94
2022-09-28T10:53:28.345Z,94
2022-09-28T10:54:35.509Z,94
2022-09-28T10:55:42.037Z,94
2022-09-28T10:56:51.004Z,93
2022-09-28T10:59:03.330Z,93
2022-09-28T11:00:10.533Z,93
2022-09-28T11:02:24.260Z,93
2022-09-28T11:03:31.301Z,93
2022-09-28T11:04:38.409Z,93
2022-09-28T11:05:45.655Z,92
2022-09-28T11:06:52.080Z,92
2022-09-28T11:07:59.285Z,92
2022-09-28T11:09:06.306Z,92
2022-09-28T11:10:13.375Z,92
2022-09-28T11:11:20.500Z,92
2022-09-28T11:12:27.066Z,93
2022-09-28T11:13:34.260Z,93
2022-09-28T11:14:42.676Z,92
2022-09-28T11:15:48.441Z,92
2022-09-28T11:16:56.324Z,92
2022-09-28T11:18:02.137Z,92
2022-09-28T11:19:10.507Z,92
2022-09-28T11:20:16.342Z,92
2022-09-28T11:21:23.354Z,92
2022-09-28T11:22:30.047Z,92
2022-09-28T11:23:37.324Z,91
2022-09-28T11:24:44.168Z,91
2022-09-28T11:25:51.328Z,91
2022-09-28T11:26:58.406Z,91
2022-09-28T11:28:05.193Z,91
2022-09-28T11:29:12.298Z,90
2022-09-28T11:30:19.251Z,90
2022-09-28T11:31:26.402Z,90
2022-09-28T11:32:33.424Z,90
2022-09-28T11:33:40.059Z,90
2022-09-28T11:34:59.106Z,90
2022-09-28T11:35:54.176Z,90
2022-09-28T11:37:01.960Z,90
2022-09-28T11:38:08.401Z,90
2022-09-28T11:39:15.145Z,90
2022-09-28T11:40:22.248Z,90
2022-09-28T11:41:29.263Z,90
2022-09-28T11:43:43.715Z,89
2022-09-28T11:45:57.201Z,89
2022-09-28T11:47:04.259Z,89
2022-09-28T11:48:11.319Z,89
2022-09-28T11:49:18.493Z,89
2022-09-28T11:50:25.317Z,88
2022-09-28T11:51:33.434Z,88
2022-09-28T11:52:39.284Z,88
2022-09-28T11:53:46.367Z,88
2022-09-28T11:54:53.447Z,88
2022-09-28T11:56:00.095Z,88
2022-09-28T11:57:07.309Z,88
2022-09-28T11:58:14.248Z,88
2022-09-28T11:59:21.349Z,88
2022-09-28T12:00:29.026Z,88
2022-09-28T12:02:42.358Z,88
2022-09-28T12:03:49.310Z,88
2022-09-28T12:04:56.386Z,88
2022-09-28T12:06:03.478Z,87
2022-09-28T12:07:10.096Z,88
2022-09-28T12:08:17.348Z,87
2022-09-28T12:09:24.266Z,87
2022-09-28T12:10:31.405Z,87
2022-09-28T12:11:38.449Z,87
2022-09-28T12:12:45.011Z,87
2022-09-28T12:13:52.235Z,87
2022-09-28T12:14:59.342Z,87
2022-09-28T12:17:17.797Z,88
2022-09-28T12:18:20.125Z,88
2022-09-28T12:19:27.267Z,88
2022-09-28T12:20:34.783Z,88
2022-09-28T12:21:41.412Z,88
2022-09-28T12:22:48.588Z,88
2022-09-28T12:25:02.205Z,87
2022-09-28T12:26:09.266Z,87
2022-09-28T12:27:16.370Z,87
2022-09-28T12:28:23.443Z,86
2022-09-28T12:29:30.082Z,86
2022-09-28T12:30:37.326Z,86
2022-09-28T12:31:44.388Z,87
2022-09-28T12:32:51.484Z,87
2022-09-28T12:33:58.565Z,87
2022-09-28T12:35:05.066Z,87
2022-09-28T12:36:12.242Z,87
2022-09-28T12:37:19.343Z,86
2022-09-28T12:38:26.390Z,86
2022-09-28T12:39:53.585Z,86
2022-09-28T12:40:40.210Z,85
2022-09-28T12:41:48.266Z,85
2022-09-28T12:42:55.517Z,85
2022-09-28T12:44:01.497Z,85
2022-09-28T12:45:07.990Z,85
2022-09-28T12:46:15.198Z,85
2022-09-28T12:47:22.202Z,85
2022-09-28T12:48:29.304Z,85
2022-09-28T12:50:33.326Z,84
2022-09-28T12:50:50.115Z,84
2022-09-28T12:51:50.245Z,84
2022-09-28T12:53:00.732Z,84
2022-09-28T12:54:04.318Z,84
2022-09-28T12:56:20.863Z,84
2022-09-28T12:57:25.170Z,84
2022-09-28T12:58:32.212Z,84
2022-09-28T12:59:39.371Z,84
2022-09-28T13:00:46.446Z,84
2022-09-28T13:01:53.096Z,84
2022-09-28T13:03:00.253Z,84
2022-09-28T13:04:11.411Z,84
2022-09-28T13:06:21.443Z,83
2022-09-28T13:07:28.022Z,83
2022-09-28T13:08:35.183Z,83
2022-09-28T13:09:42.235Z,83
2022-09-28T13:10:49.334Z,83
2022-09-28T13:11:56.478Z,83
2022-09-28T13:14:10.223Z,83
2022-09-28T13:15:17.226Z,83
2022-09-28T13:16:24.384Z,83
2022-09-28T13:17:31.496Z,83
2022-09-28T13:18:37.570Z,83
2022-09-28T13:19:45.137Z,83
2022-09-28T13:20:52.253Z,83
2022-09-28T13:21:59.400Z,83
2022-09-28T13:23:07.011Z,83
2022-09-28T13:24:31.121Z,83
2022-09-28T13:25:20.226Z,83
2022-09-28T13:26:27.300Z,82
2022-09-28T13:27:34.316Z,82
2022-09-28T13:28:41.465Z,82
2022-09-28T13:29:48.119Z,81
2022-09-28T13:30:55.452Z,81
2022-09-28T13:32:02.418Z,81
2022-09-28T13:33:09.415Z,81
2022-09-28T13:34:16.090Z,81
2022-09-28T13:35:23.021Z,81
2022-09-28T13:36:30.172Z,81
2022-09-28T13:37:37.314Z,81
2022-09-28T13:38:44.386Z,81
2022-09-28T13:39:51.477Z,81
2022-09-28T13:40:58.200Z,81
2022-09-28T13:42:05.173Z,81
2022-09-28T13:43:14.358Z,81
2022-09-28T13:44:19.490Z,81
2022-09-28T13:45:26.014Z,81
2022-09-28T13:47:40.157Z,80
2022-09-28T13:48:47.330Z,80
2022-09-28T13:51:01.001Z,80
2022-09-28T13:52:08.106Z,80
2022-09-28T13:53:15.193Z,80
2022-09-28T13:54:22.289Z,80
2022-09-28T13:55:29.421Z,80
2022-09-28T13:56:35.984Z,80
2022-09-28T13:57:43.037Z,79
2022-09-28T13:58:50.295Z,79
2022-09-28T13:59:57.319Z,79
2022-09-28T14:01:04.487Z,79
2022-09-28T14:02:11.612Z,79
2022-09-28T14:03:18.139Z,79
2022-09-28T14:04:25.764Z,79
2022-09-28T14:05:32.352Z,79
2022-09-28T14:06:42.787Z,79
2022-09-28T14:07:46.240Z,80
2022-09-28T14:10:00.564Z,80
2022-09-28T14:11:07.308Z,80
2022-09-28T14:12:14.417Z,81
2022-09-28T14:13:21.020Z,81
2022-09-28T14:14:28.145Z,81
2022-09-28T14:15:35.315Z,80
2022-09-28T14:16:42.381Z,80
2022-09-28T14:17:49.446Z,80
2022-09-28T14:18:56.208Z,80
2022-09-28T14:20:03.166Z,79
2022-09-28T14:21:10.224Z,79
2022-09-28T14:22:17.309Z,79
2022-09-28T14:23:23.868Z,79
2022-09-28T14:24:31.082Z,79
2022-09-28T14:25:38.170Z,79
2022-09-28T14:26:45.241Z,79
2022-09-28T14:28:59.469Z,79
2022-09-28T14:30:06.167Z,79
2022-09-28T14:31:13.183Z,79
2022-09-28T14:32:20.293Z,79
2022-09-28T14:33:27.375Z,78
2022-09-28T14:34:34.046Z,78
2022-09-28T14:35:41.047Z,78
2022-09-28T14:36:51.122Z,78
2022-09-28T14:37:55.252Z,78
2022-09-28T14:39:02.386Z,77
2022-09-28T14:44:37.363Z,77
2022-09-28T14:45:45.077Z,77
2022-09-28T14:46:51.168Z,77
2022-09-28T14:47:58.174Z,77
2022-09-28T14:49:05.223Z,77
2022-09-28T14:50:14.691Z,77
2022-09-28T14:51:19.525Z,77
2022-09-28T14:52:26.375Z,78
2022-09-28T14:53:33.188Z,78
2022-09-28T14:54:40.249Z,78
2022-09-28T14:55:47.410Z,78
2022-09-28T14:56:53.979Z,78
2022-09-28T14:58:01.209Z,78
2022-09-28T14:59:08.155Z,78
2022-09-28T15:00:15.225Z,78
2022-09-28T15:01:22.434Z,78
2022-09-28T15:02:29.062Z,78
2022-09-28T15:03:36.182Z,78
2022-09-28T15:04:43.359Z,78
2022-09-28T15:05:51.741Z,78
2022-09-28T15:06:57.387Z,78
2022-09-28T15:08:04.023Z,78
2022-09-28T15:09:11.099Z,79
2022-09-28T15:10:18.269Z,79
2022-09-28T15:11:25.371Z,79
2022-09-28T15:13:39.048Z,79
2022-09-28T15:14:46.271Z,79
2022-09-28T15:15:53.352Z,79
2022-09-28T15:16:59.825Z,79
2022-09-28T15:19:13.990Z,78
2022-09-28T15:20:21.214Z,78
2022-09-28T15:21:28.242Z,78
2022-09-28T15:22:35.272Z,78
2022-09-28T15:23:42.637Z,78
2022-09-28T15:24:48.998Z,79
2022-09-28T15:25:56.102Z,78
2022-09-28T15:27:03.742Z,78
2022-09-28T15:28:10.375Z,78
2022-09-28T15:29:17.396Z,78
2022-09-28T15:30:23.967Z,78
2022-09-28T15:31:31.689Z,78
2022-09-28T15:32:38.311Z,79
2022-09-28T15:33:45.312Z,79
2022-09-28T15:34:51.971Z,79
2022-09-28T15:35:58.998Z,79
2022-09-28T15:37:06.115Z,79
2022-09-28T15:38:13.231Z,79
2022-09-28T15:39:20.374Z,79
2022-09-28T15:40:27.556Z,79
2022-09-28T15:41:34.126Z,79
2022-09-28T15:42:41.200Z,79
2022-09-28T15:43:48.318Z,79
2022-09-28T15:46:02.003Z,79
2022-09-28T15:47:09.032Z,80
2022-09-28T15:48:16.180Z,80
2022-09-28T15:49:23.198Z,80
2022-09-28T15:50:30.399Z,80
2022-09-28T15:51:37.003Z,80
2022-09-28T15:52:44.093Z,80
2022-09-28T15:53:51.226Z,80
2022-09-28T15:54:58.226Z,80
2022-09-28T15:56:05.410Z,80
2022-09-28T15:57:11.963Z,80
2022-09-28T15:58:19.155Z,80
2022-09-28T15:59:26.182Z,80
2022-09-28T16:00:33.417Z,80
2022-09-28T16:01:40.409Z,80
2022-09-28T16:02:47.099Z,80
2022-09-28T16:03:54.127Z,79
2022-09-28T16:05:01.249Z,79
2022-09-28T16:06:08.411Z,79
2022-09-28T16:07:15.313Z,79
2022-09-28T16:08:23.143Z,79
2022-09-28T16:09:29.131Z,79
2022-09-28T16:10:36.223Z,79
2022-09-28T16:11:43.335Z,80
2022-09-28T16:12:50.343Z,80
2022-09-28T16:13:57.054Z,80
2022-09-28T16:15:04.048Z,80
2022-09-28T16:17:18.335Z,79
2022-09-28T16:18:25.402Z,79
2022-09-28T16:19:32.177Z,79
2022-09-28T16:20:39.141Z,79
2022-09-28T16:21:46.212Z,79
2022-09-28T16:22:53.317Z,79
2022-09-28T16:24:00.448Z,79
2022-09-28T16:25:07.191Z,79
2022-09-28T16:26:14.030Z,79
2022-09-28T16:27:21.261Z,79
2022-09-28T16:28:31.401Z,79
2022-09-28T16:29:35.340Z,79
2022-09-28T16:30:42.676Z,80
2022-09-28T16:31:49.075Z,80
2022-09-28T16:32:56.133Z,80
2022-09-28T16:34:03.303Z,80
2022-09-28T16:35:10.423Z,80
2022-09-28T16:36:17.073Z,80
2022-09-28T16:37:24.044Z,80
2022-09-28T16:38:31.197Z,80
2022-09-28T16:39:38.248Z,80
2022-09-28T16:40:44.934Z,80
2022-09-28T16:41:52.122Z,80
2022-09-28T16:42:59.233Z,80
2022-09-28T16:44:06.229Z,80
2022-09-28T16:45:13.263Z,80
2022-09-28T16:47:27.030Z,80
2022-09-28T16:48:34.071Z,80
2022-09-28T16:49:41.713Z,80
2022-09-28T16:50:48.396Z,80
2022-09-28T16:51:55.525Z,80
2022-09-28T16:53:02.053Z,80
2022-09-28T16:54:09.176Z,80
2022-09-28T16:55:38.822Z,81
2022-09-28T16:56:23.399Z,81
2022-09-28T16:57:29.891Z,81
2022-09-28T16:58:36.960Z,81
2022-09-28T16:59:44.140Z,81
2022-09-28T17:00:51.258Z,81
2022-09-28T17:01:58.367Z,81
2022-09-28T17:03:04.947Z,81
2022-09-28T17:04:12.000Z,81
2022-09-28T17:05:19.125Z,80
2022-09-28T17:06:26.284Z,80
2022-09-28T17:07:33.360Z,80
2022-09-28T17:08:39.944Z,81
2022-09-28T17:09:47.041Z,81
2022-09-28T17:12:01.296Z,81
2022-09-28T17:13:08.424Z,81